Chafford Hundred, United Kingdom
Current Conditions -  °F | °C
As of 8:20 AM on Friday 21 Nov 2014 (Local Time) from EGLC Reporting Station
Broken Clouds Broken Clouds  
Wind Chill: 41°   Ceiling: 1200
Heat Index: 46°   Visibility: 4mi
Dew Point: 43°   Wind: 13mph
Humidity: 87%   Direction: 100°E
Pressure: 30.12"   Gusts: NA
Location:  51.49°N, 0.29°E
Report Text: EGLC 210820Z 10011KT 6000 BKN012 08/06 Q1020
Loading
Personal Weather Stations






























Interactive Weather Map New forecast layout! Learn more

10-Day Weather Forecast

Advertisements
Track Severe Weather on mobile